Time;durP1;ratioP1;P1;durP2;ratioP2;P2;SDS_P1;SDS_P2;PMS_P1;PMS_P2;Temp;Humidity;BMP_temperature;BMP_pressure;BME280_temperature;BME280_humidity;BME280_pressure;Samples;Min_cycle;Max_cycle;Signal;HPM_P1;HPM_P2
2022/02/26 00:01:39;;;;;;;1999.90;999.90;;;;;;;3.43;78.36;163312.22;5046660;28;20080;-68
2022/02/26 00:04:06;;;;;;;1999.90;999.90;;;;;;;3.61;78.01;163358.81;5061697;28;20477;-68
2022/02/26 00:06:32;;;;;;;1999.90;999.90;;;;;;;3.44;78.39;163313.56;5060234;28;20123;-69
2022/02/26 00:08:59;;;;;;;1999.90;999.90;;;;;;;3.38;78.49;163297.13;5057159;28;20095;-68
2022/02/26 00:11:25;;;;;;;1999.90;999.90;;;;;;;3.20;78.73;163249.16;5064634;28;20575;-69
2022/02/26 00:13:52;;;;;;;1999.90;999.90;;;;;;;2.86;79.69;163158.72;5057783;28;20501;-68
2022/02/26 00:16:18;;;;;;;1999.90;999.90;;;;;;;2.37;82.01;163028.66;5053760;28;20137;-68
2022/02/26 00:18:45;;;;;;;1999.90;999.90;;;;;;;2.69;81.08;163114.91;5055280;28;20411;-68
2022/02/26 00:21:12;;;;;;;1999.90;999.90;;;;;;;2.86;80.88;163160.13;5061283;28;20544;-68
2022/02/26 00:23:39;;;;;;;1999.90;999.90;;;;;;;3.09;79.64;163220.41;5058830;28;20076;-68
2022/02/26 00:26:06;;;;;;;1999.90;999.90;;;;;;;3.38;79.50;163297.13;5058242;28;20044;-68
2022/02/26 00:28:33;;;;;;;1999.90;999.90;;;;;;;3.32;79.53;163282.03;5056234;28;20426;-68
2022/02/26 00:31:00;;;;;;;1999.90;999.90;;;;;;;3.12;80.41;163229.97;5059327;28;20429;-68
2022/02/26 00:33:27;;;;;;;1999.90;999.90;;;;;;;3.21;80.90;163253.28;5062888;28;20098;-67
2022/02/26 00:35:53;;;;;;;1999.90;999.90;;;;;;;3.10;81.52;163223.16;5060068;28;20049;-66
2022/02/26 00:38:20;;;;;;;1999.90;999.90;;;;;;;3.10;82.25;163224.50;5059453;28;21096;-66
2022/02/26 00:40:46;;;;;;;1999.90;999.90;;;;;;;2.84;83.13;163153.28;5062131;28;20403;-67
2022/02/26 00:43:13;;;;;;;1999.90;999.90;;;;;;;3.22;82.33;163256.03;5059312;28;20501;-66
2022/02/26 00:45:39;;;;;;;1999.90;999.90;;;;;;;3.47;81.38;163323.19;5055723;28;20382;-66
2022/02/26 00:48:06;;;;;;;1999.90;999.90;;;;;;;3.56;80.77;163345.09;5055932;28;20127;-67
2022/02/26 00:50:32;;;;;;;1999.90;999.90;;;;;;;3.65;80.05;163371.16;5060950;28;20084;-67
2022/02/26 00:52:59;;;;;;;1999.90;999.90;;;;;;;3.35;80.81;163290.31;5056470;28;20120;-67
2022/02/26 00:55:25;;;;;;;1999.90;999.90;;;;;;;3.29;81.15;163273.81;5058503;28;20041;-67
2022/02/26 00:57:52;;;;;;;1999.90;999.90;;;;;;;3.02;81.26;163201.22;5058231;28;20117;-67
2022/02/26 01:00:18;;;;;;;1999.90;999.90;;;;;;;3.13;81.48;163232.72;5059671;28;20076;-67
2022/02/26 01:02:46;;;;;;;1999.90;999.90;;;;;;;3.14;82.18;163234.09;5058908;28;20072;-67
2022/02/26 01:05:13;;;;;;;1999.90;999.90;;;;;;;3.27;82.10;163268.38;5058227;28;20598;-67
2022/02/26 01:07:39;;;;;;;1999.90;999.90;;;;;;;3.35;81.86;163291.66;5056384;28;20391;-67
2022/02/26 01:10:08;;;;;;;1999.90;999.90;;;;;;;3.33;82.38;163284.78;5058215;28;20197;-67
2022/02/26 01:12:35;;;;;;;1999.90;999.90;;;;;;;3.15;81.90;163236.84;5053775;28;20413;-68
2022/02/26 01:15:03;;;;;;;1999.90;999.90;;;;;;;2.96;82.06;163186.13;5062372;28;20079;-68
2022/02/26 01:17:30;;;;;;;1999.90;999.90;;;;;;;2.92;81.95;163176.56;5054026;28;20049;-67
2022/02/26 01:19:56;;;;;;;1999.90;999.90;;;;;;;2.94;81.57;163180.66;5054155;28;20048;-67
2022/02/26 01:22:23;;;;;;;1999.90;999.90;;;;;;;2.92;81.43;163176.56;5063969;28;20099;-67
2022/02/26 01:24:50;;;;;;;1999.90;999.90;;;;;;;2.81;82.29;163147.81;5060025;28;20083;-67
2022/02/26 01:27:16;;;;;;;1999.90;999.90;;;;;;;2.72;81.81;163121.75;5062686;28;20107;-67
2022/02/26 01:29:43;;;;;;;1999.90;999.90;;;;;;;2.64;81.65;163101.22;5064175;28;20044;-67
2022/02/26 01:32:09;;;;;;;1999.90;999.90;;;;;;;2.60;81.66;163090.25;5062875;28;20126;-67
2022/02/26 01:34:36;;;;;;;1999.90;999.90;;;;;;;2.59;81.79;163087.50;5057916;28;20126;-67
2022/02/26 01:37:04;;;;;;;1999.90;999.90;;;;;;;2.39;82.22;163035.47;5049680;28;20079;-67
2022/02/26 01:39:31;;;;;;;1999.90;999.90;;;;;;;2.21;83.52;162987.53;5059517;28;20085;-68
2022/02/26 01:41:58;;;;;;;1999.90;999.90;;;;;;;2.27;83.30;163002.59;5059231;28;20072;-67
2022/02/26 01:44:25;;;;;;;1999.90;999.90;;;;;;;2.40;83.16;163036.84;5066661;28;20102;-67
2022/02/26 01:46:52;;;;;;;1999.90;999.90;;;;;;;2.59;82.46;163087.50;5063004;28;20421;-67
2022/02/26 01:49:19;;;;;;;1999.90;999.90;;;;;;;2.61;82.13;163094.34;5059641;28;21049;-67
2022/02/26 01:51:47;;;;;;;1999.90;999.90;;;;;;;2.61;81.94;163094.34;5062973;28;20048;-68
2022/02/26 01:54:14;;;;;;;1999.90;999.90;;;;;;;2.57;82.27;163082.03;5059644;28;20170;-68
2022/02/26 01:56:41;;;;;;;1999.90;999.90;;;;;;;2.24;82.92;162994.38;5061196;28;20117;-68
2022/02/26 01:59:07;;;;;;;1999.90;999.90;;;;;;;2.20;82.83;162984.78;5062596;28;20094;-67
2022/02/26 02:01:34;;;;;;;1999.90;999.90;;;;;;;1.69;84.41;162849.25;5061674;28;20120;-67
2022/02/26 02:04:02;;;;;;;1999.90;999.90;;;;;;;1.60;84.84;162823.28;5058822;28;20127;-67
2022/02/26 02:06:29;;;;;;;1999.90;999.90;;;;;;;1.11;86.31;162693.25;5062136;28;20542;-68
2022/02/26 02:08:56;;;;;;;1999.90;999.90;;;;;;;0.90;87.66;162637.16;5059705;28;20131;-68
2022/02/26 02:11:23;;;;;;;1999.90;999.90;;;;;;;0.78;88.83;162607.06;5059511;28;20777;-68
2022/02/26 02:13:50;;;;;;;1999.90;999.90;;;;;;;1.12;87.05;162696.00;5061423;28;20056;-68
2022/02/26 02:16:18;;;;;;;1999.90;999.90;;;;;;;1.35;86.06;162758.91;5060455;28;20076;-68
2022/02/26 02:18:44;;;;;;;1999.90;999.90;;;;;;;1.35;86.17;162758.91;5059011;28;20053;-68
2022/02/26 02:21:13;;;;;;;1999.90;999.90;;;;;;;1.43;84.71;162779.47;5063129;28;20057;-68
2022/02/26 02:23:42;;;;;;;1999.90;999.90;;;;;;;1.74;84.35;162861.56;5060376;28;20052;-68
2022/02/26 02:26:09;;;;;;;1999.90;999.90;;;;;;;1.86;83.91;162893.06;5058775;28;20048;-68
2022/02/26 02:28:38;;;;;;;1999.90;999.90;;;;;;;1.64;84.16;162834.19;5061970;28;20527;-68
2022/02/26 02:31:05;;;;;;;1999.90;999.90;;;;;;;1.37;84.96;162764.41;5064038;28;20060;-68
2022/02/26 02:33:40;;;;;;;1999.90;999.90;;;;;;;1.36;84.37;162760.31;5059120;28;20390;-68
2022/02/26 02:36:07;;;;;;;1999.90;999.90;;;;;;;1.22;84.39;162723.31;5059680;28;20045;-68
2022/02/26 02:38:33;;;;;;;1999.90;999.90;;;;;;;1.01;84.86;162667.25;5060987;28;20080;-68
2022/02/26 02:41:00;;;;;;;1999.90;999.90;;;;;;;1.32;84.26;162750.69;5060597;28;20049;-68
2022/02/26 02:43:26;;;;;;;1999.90;999.90;;;;;;;1.31;84.21;162748.00;5060075;28;20127;-68
2022/02/26 02:45:53;;;;;;;1999.90;999.90;;;;;;;1.05;84.43;162679.53;5065821;28;20107;-68
2022/02/26 02:48:20;;;;;;;1999.90;999.90;;;;;;;1.06;84.61;162680.94;5060002;28;20083;-68
2022/02/26 02:50:46;;;;;;;1999.90;999.90;;;;;;;1.26;84.50;162734.28;5058762;28;20431;-68
2022/02/26 02:53:16;;;;;;;1999.90;999.90;;;;;;;1.55;83.52;162810.94;5065615;28;20345;-68
2022/02/26 02:55:43;;;;;;;1999.90;999.90;;;;;;;1.75;83.01;162865.66;5055271;28;20133;-68
2022/02/26 02:58:10;;;;;;;1999.90;999.90;;;;;;;1.89;82.51;162902.66;5058889;28;20053;-67
2022/02/26 03:00:36;;;;;;;1999.90;999.90;;;;;;;1.97;82.17;162923.19;5061701;28;20126;-68
2022/02/26 03:03:06;;;;;;;1999.90;999.90;;;;;;;1.97;81.84;162921.84;5060624;28;20102;-68
2022/02/26 03:05:33;;;;;;;1999.90;999.90;;;;;;;1.72;82.59;162857.47;5054319;28;20051;-68
2022/02/26 03:07:59;;;;;;;1999.90;999.90;;;;;;;1.71;83.27;162854.75;5064668;28;20449;-68
2022/02/26 03:10:27;;;;;;;1999.90;999.90;;;;;;;1.85;82.91;162890.34;5055213;28;20049;-68
2022/02/26 03:12:54;;;;;;;1999.90;999.90;;;;;;;1.91;82.45;162906.78;5060584;28;20084;-68
2022/02/26 03:15:23;;;;;;;1999.90;999.90;;;;;;;1.73;82.22;162858.88;5064064;28;20120;-68
2022/02/26 03:17:52;;;;;;;1999.90;999.90;;;;;;;1.53;83.39;162805.44;5056471;28;20080;-68
2022/02/26 03:20:20;;;;;;;1999.90;999.90;;;;;;;1.50;83.42;162798.59;5054736;28;20515;-68
2022/02/26 03:22:46;;;;;;;1999.90;999.90;;;;;;;1.53;83.11;162805.44;5063654;28;20051;-68
2022/02/26 03:25:15;;;;;;;1999.90;999.90;;;;;;;1.51;83.49;162801.34;5061019;28;20071;-67
2022/02/26 03:27:41;;;;;;;1999.90;999.90;;;;;;;1.57;82.89;162816.41;5056531;28;20053;-67
2022/02/26 03:30:09;;;;;;;1999.90;999.90;;;;;;;1.30;83.45;162745.25;5054790;28;20468;-68
2022/02/26 03:32:37;;;;;;;1999.90;999.90;;;;;;;1.04;83.99;162675.44;5058567;28;20148;-68
2022/02/26 03:35:04;;;;;;;1999.90;999.90;;;;;;;1.23;84.31;162726.06;5056170;28;20083;-68
2022/02/26 03:37:34;;;;;;;1999.90;999.90;;;;;;;1.27;83.83;162737.03;5061214;28;20048;-68
2022/02/26 03:40:01;;;;;;;1999.90;999.90;;;;;;;1.46;83.33;162787.69;5061514;28;20075;-68
2022/02/26 03:42:27;;;;;;;1999.90;999.90;;;;;;;1.54;82.60;162809.56;5052409;28;20044;-68
2022/02/26 03:44:54;;;;;;;1999.90;999.90;;;;;;;1.47;82.64;162790.38;5052350;28;20130;-68
2022/02/26 03:47:20;;;;;;;1999.90;999.90;;;;;;;1.56;82.90;162813.66;5058066;28;20041;-68
2022/02/26 03:49:48;;;;;;;1999.90;999.90;;;;;;;1.38;82.56;162765.75;5055429;28;20426;-68
2022/02/26 03:52:15;;;;;;;1999.90;999.90;;;;;;;1.23;83.25;162727.44;5058738;28;20103;-68
2022/02/26 03:54:42;;;;;;;1999.90;999.90;;;;;;;0.81;84.00;162613.91;5063164;28;20048;-68
2022/02/26 03:57:09;;;;;;;1999.90;999.90;;;;;;;0.38;86.69;162500.38;5055471;28;20065;-68
2022/02/26 03:59:36;;;;;;;1999.90;999.90;;;;;;;0.34;86.93;162489.41;5061888;28;20338;-68
2022/02/26 04:02:03;;;;;;;1999.90;999.90;;;;;;;0.32;87.17;162485.31;5063772;28;20087;-68
2022/02/26 04:04:34;;;;;;;1999.90;999.90;;;;;;;0.53;86.55;162541.38;5054459;28;20059;-68
2022/02/26 04:07:02;;;;;;;1999.90;999.90;;;;;;;0.83;85.31;162619.34;5059218;28;20127;-68
2022/02/26 04:09:29;;;;;;;1999.90;999.90;;;;;;;1.11;84.63;162693.25;5063776;28;20045;-68
2022/02/26 04:11:55;;;;;;;1999.90;999.90;;;;;;;1.27;83.97;162737.03;5058489;28;20459;-68
2022/02/26 04:14:22;;;;;;;1999.90;999.90;;;;;;;1.08;84.37;162686.41;5059036;28;20487;-68
2022/02/26 04:16:49;;;;;;;1999.90;999.90;;;;;;;1.28;83.77;162739.78;5061037;28;20458;-68
2022/02/26 04:19:15;;;;;;;1999.90;999.90;;;;;;;1.19;83.94;162716.53;5050346;28;20053;-68
2022/02/26 04:21:42;;;;;;;1999.90;999.90;;;;;;;1.17;83.94;162709.66;5053881;28;20091;-68
2022/02/26 04:24:09;;;;;;;1999.90;999.90;;;;;;;1.02;84.44;162671.34;5063496;28;20138;-68
2022/02/26 04:26:35;;;;;;;1999.90;999.90;;;;;;;0.97;85.00;162657.69;5059204;28;20435;-68
2022/02/26 04:29:02;;;;;;;1999.90;999.90;;;;;;;1.39;83.92;162769.88;5071853;28;20126;-68
2022/02/26 04:31:28;;;;;;;1999.90;999.90;;;;;;;1.40;83.46;162771.25;5062381;28;20934;-68
2022/02/26 04:33:55;;;;;;;1999.90;999.90;;;;;;;1.48;84.05;162791.78;5057253;28;20125;-68
2022/02/26 04:36:21;;;;;;;1999.90;999.90;;;;;;;1.42;84.13;162775.38;5056820;28;20422;-68
2022/02/26 04:38:52;;;;;;;1999.90;999.90;;;;;;;1.58;83.80;162819.16;5062128;28;20857;-68
2022/02/26 04:41:18;;;;;;;1999.90;999.90;;;;;;;1.43;84.85;162779.47;5059654;28;20099;-68
2022/02/26 04:43:45;;;;;;;1999.90;999.90;;;;;;;1.51;84.80;162800.00;5051587;28;20122;-68
2022/02/26 04:46:12;;;;;;;1999.90;999.90;;;;;;;1.50;84.75;162798.59;5060492;28;20132;-68
2022/02/26 04:48:40;;;;;;;1999.90;999.90;;;;;;;1.74;84.30;162862.97;5057141;28;20056;-68
2022/02/26 04:51:08;;;;;;;1999.90;999.90;;;;;;;1.67;84.08;162842.44;5052086;28;20128;-68
2022/02/26 04:53:38;;;;;;;1999.90;999.90;;;;;;;1.93;83.53;162913.56;5062653;28;20076;-68
2022/02/26 04:56:06;;;;;;;1999.90;999.90;;;;;;;1.93;83.78;162912.22;5059834;28;20477;-68
2022/02/26 04:58:34;;;;;;;1999.90;999.90;;;;;;;1.89;83.93;162901.25;5056111;28;20172;-68
2022/02/26 05:01:02;;;;;;;1999.90;999.90;;;;;;;1.80;84.21;162877.97;5063790;28;20625;-68
2022/02/26 05:03:29;;;;;;;1999.90;999.90;;;;;;;1.64;84.85;162835.59;5064479;28;20417;-68
2022/02/26 05:05:55;;;;;;;1999.90;999.90;;;;;;;1.89;84.36;162901.25;5058260;28;20037;-68
2022/02/26 05:08:22;;;;;;;1999.90;999.90;;;;;;;2.09;83.38;162954.69;5045693;28;20154;-68
2022/02/26 05:10:49;;;;;;;1999.90;999.90;;;;;;;2.05;84.31;162945.06;5059645;28;20056;-68
2022/02/26 05:13:15;;;;;;;1999.90;999.90;;;;;;;2.25;84.58;162998.50;5061300;28;20421;-68
2022/02/26 05:15:42;;;;;;;1999.90;999.90;;;;;;;2.37;83.55;163030.00;5064726;28;20459;-68
2022/02/26 05:18:10;;;;;;;1999.90;999.90;;;;;;;2.09;84.47;162956.03;5062808;28;20061;-68
2022/02/26 05:20:36;;;;;;;1999.90;999.90;;;;;;;1.69;85.46;162849.25;5059888;28;20500;-68
2022/02/26 05:23:03;;;;;;;1999.90;999.90;;;;;;;1.88;84.76;162898.56;5063013;28;20095;-68
2022/02/26 05:25:30;;;;;;;1999.90;999.90;;;;;;;2.18;83.66;162977.97;5064296;28;20056;-68
2022/02/26 05:27:56;;;;;;;1999.90;999.90;;;;;;;2.12;83.31;162962.91;5058542;28;20133;-69
2022/02/26 05:30:23;;;;;;;1999.90;999.90;;;;;;;2.16;83.77;162972.47;5058613;28;20477;-69
2022/02/26 05:32:49;;;;;;;1999.90;999.90;;;;;;;2.22;84.13;162988.88;5061502;28;20200;-69
2022/02/26 05:35:16;;;;;;;1999.90;999.90;;;;;;;1.99;83.90;162928.66;5058550;28;20100;-68
2022/02/26 05:37:43;;;;;;;1999.90;999.90;;;;;;;1.92;84.37;162909.47;5061894;28;20093;-68
2022/02/26 05:40:11;;;;;;;1999.90;999.90;;;;;;;2.04;84.28;162940.97;5067100;28;20075;-68
2022/02/26 05:42:37;;;;;;;1999.90;999.90;;;;;;;1.98;84.22;162925.94;5059842;28;20052;-68
2022/02/26 05:45:04;;;;;;;1999.90;999.90;;;;;;;1.90;84.76;162905.38;5058099;28;20087;-68
2022/02/26 05:47:31;;;;;;;1999.90;999.90;;;;;;;1.59;85.57;162821.88;5063965;28;20084;-68
2022/02/26 05:49:57;;;;;;;1999.90;999.90;;;;;;;1.76;85.76;162868.41;5066219;28;20494;-69
2022/02/26 05:52:24;;;;;;;1999.90;999.90;;;;;;;1.97;84.38;162923.19;5057734;28;20472;-69
2022/02/26 05:54:50;;;;;;;1999.90;999.90;;;;;;;1.85;85.24;162891.69;5065946;28;20080;-69
2022/02/26 05:57:17;;;;;;;1999.90;999.90;;;;;;;2.06;84.49;162947.81;5061675;28;20048;-69
2022/02/26 05:59:43;;;;;;;1999.90;999.90;;;;;;;2.31;83.87;163012.16;5061495;28;20138;-69
2022/02/26 06:02:10;;;;;;;1999.90;999.90;;;;;;;2.47;83.39;163057.38;5060724;28;20084;-66
2022/02/26 06:04:36;;;;;;;1999.90;999.90;;;;;;;2.66;83.83;163105.34;5055283;28;20465;-67
2022/02/26 06:07:08;;;;;;;1999.90;999.90;;;;;;;2.84;83.54;163153.28;5061442;28;20402;-67
2022/02/26 06:09:35;;;;;;;1999.90;999.90;;;;;;;2.89;83.06;163166.94;5067155;28;20088;-67
2022/02/26 06:12:02;;;;;;;1999.90;999.90;;;;;;;2.69;83.13;163113.53;5060477;28;20044;-67
2022/02/26 06:14:28;;;;;;;1999.90;999.90;;;;;;;2.93;82.84;163179.31;5060503;28;20084;-67
2022/02/26 06:16:55;;;;;;;1999.90;999.90;;;;;;;3.02;82.61;163202.56;5067259;28;20051;-67
2022/02/26 06:19:22;;;;;;;1999.90;999.90;;;;;;;2.95;82.39;163184.78;5063396;28;20059;-68
2022/02/26 06:21:48;;;;;;;1999.90;999.90;;;;;;;3.03;82.44;163205.31;5061361;28;20457;-67
2022/02/26 06:24:16;;;;;;;1999.90;999.90;;;;;;;3.03;82.34;163205.31;5063087;28;20087;-68
2022/02/26 06:26:43;;;;;;;1999.90;999.90;;;;;;;3.11;82.60;163225.88;5062257;28;20409;-67
2022/02/26 06:29:09;;;;;;;1999.90;999.90;;;;;;;3.37;83.08;163295.78;5058631;28;20142;-68
2022/02/26 06:31:36;;;;;;;1999.90;999.90;;;;;;;3.33;81.75;163284.78;5058004;28;20382;-68
2022/02/26 06:34:02;;;;;;;1999.90;999.90;;;;;;;3.32;81.40;163282.03;5063438;28;20438;-68
2022/02/26 06:36:29;;;;;;;1999.90;999.90;;;;;;;3.32;81.49;163283.44;5061221;28;20098;-67
2022/02/26 06:38:56;;;;;;;1999.90;999.90;;;;;;;3.34;82.18;163287.56;5060923;28;20504;-68
2022/02/26 06:41:22;;;;;;;1999.90;999.90;;;;;;;3.16;82.52;163239.59;5047803;28;20106;-67
2022/02/26 06:43:49;;;;;;;1999.90;999.90;;;;;;;3.44;82.65;163313.56;5047585;28;20132;-68
2022/02/26 06:46:15;;;;;;;1999.90;999.90;;;;;;;3.72;82.66;163388.97;5049264;28;20051;-67
2022/02/26 06:48:42;;;;;;;1999.90;999.90;;;;;;;3.86;83.27;163426.00;5065441;28;20083;-68
2022/02/26 06:51:09;;;;;;;1999.90;999.90;;;;;;;3.88;83.32;163431.47;5062362;28;20075;-68
2022/02/26 06:53:35;;;;;;;1999.90;999.90;;;;;;;3.87;83.84;163430.13;5044255;28;20056;-68
2022/02/26 06:56:02;;;;;;;1999.90;999.90;;;;;;;3.67;85.34;163376.63;5064953;28;20121;-67
2022/02/26 06:58:28;;;;;;;1999.90;999.90;;;;;;;3.77;85.48;163401.34;5062603;28;20048;-67
2022/02/26 07:00:55;;;;;;;1999.90;999.90;;;;;;;3.78;86.25;163405.44;5055571;28;20044;-67
2022/02/26 07:03:23;;;;;;;1999.90;999.90;;;;;;;3.94;86.53;163446.56;5055830;28;20443;-68
2022/02/26 07:05:49;;;;;;;1999.90;999.90;;;;;;;3.61;88.56;163360.19;5056150;28;20060;-68
2022/02/26 07:08:16;;;;;;;1999.90;999.90;;;;;;;3.84;88.43;163421.88;5056086;28;20267;-68
2022/02/26 07:10:43;;;;;;;1999.90;999.90;;;;;;;3.65;89.30;163369.81;5061037;28;20121;-69
2022/02/26 07:13:09;;;;;;;1999.90;999.90;;;;;;;3.90;89.17;163435.56;5061971;28;20136;-68
2022/02/26 07:15:37;;;;;;;1999.90;999.90;;;;;;;3.89;89.42;163434.22;5062705;28;20317;-69
2022/02/26 07:18:03;;;;;;;1999.90;999.90;;;;;;;3.50;91.61;163331.41;5062329;28;20076;-68
2022/02/26 07:20:30;;;;;;;1999.90;999.90;;;;;;;3.74;91.29;163394.47;5045914;28;20045;-68
2022/02/26 07:22:56;;;;;;;1999.90;999.90;;;;;;;3.63;92.02;163364.28;5058199;28;20041;-68
2022/02/26 07:25:24;;;;;;;1999.90;999.90;;;;;;;3.73;91.92;163391.72;5059281;28;20060;-68
2022/02/26 07:27:51;;;;;;;1999.90;999.90;;;;;;;3.77;91.93;163402.69;5060927;28;20094;-68
2022/02/26 07:30:17;;;;;;;1999.90;999.90;;;;;;;3.81;92.77;163413.66;5053344;28;20090;-68
2022/02/26 07:32:43;;;;;;;1999.90;999.90;;;;;;;3.80;93.34;163409.56;5059151;28;20049;-68
2022/02/26 07:35:10;;;;;;;1999.90;999.90;;;;;;;4.01;92.62;163465.75;5061916;28;20044;-68
2022/02/26 07:37:37;;;;;;;1999.90;999.90;;;;;;;4.22;92.29;163521.97;5065805;28;20518;-68
2022/02/26 07:40:05;;;;;;;1999.90;999.90;;;;;;;4.27;91.76;163534.31;5059410;28;20097;-68
2022/02/26 07:42:31;;;;;;;1999.90;999.90;;;;;;;3.51;95.75;163334.16;5060863;28;20105;-68
2022/02/26 07:44:58;;;;;;;1999.90;999.90;;;;;;;3.92;94.70;163442.44;5050850;28;20112;-68
2022/02/26 07:47:25;;;;;;;1999.90;999.90;;;;;;;4.19;93.54;163513.75;5059309;28;20048;-68
2022/02/26 07:49:51;;;;;;;1999.90;999.90;;;;;;;4.26;93.54;163532.94;5051024;28;20479;-68
2022/02/26 07:52:27;;;;;;;1999.90;999.90;;;;;;;4.41;92.88;163572.72;5055888;28;20600;-68
2022/02/26 07:54:54;;;;;;;1999.90;999.90;;;;;;;4.52;92.86;163602.88;5057788;28;20102;-68
2022/02/26 07:57:20;;;;;;;1999.90;999.90;;;;;;;4.62;92.60;163627.59;5066460;28;20053;-68
2022/02/26 07:59:49;;;;;;;1999.90;999.90;;;;;;;4.74;92.47;163661.84;5061541;28;20456;-68
2022/02/26 08:02:16;;;;;;;1999.90;999.90;;;;;;;4.89;92.09;163701.63;5057216;28;20072;-68
2022/02/26 08:04:42;;;;;;;1999.90;999.90;;;;;;;5.02;92.32;163735.97;5060936;28;20139;-68
2022/02/26 08:07:09;;;;;;;1999.90;999.90;;;;;;;5.07;92.32;163748.31;5063198;28;20788;-67
2022/02/26 08:09:35;;;;;;;1999.90;999.90;;;;;;;5.19;91.86;163781.22;5056293;28;20083;-67
2022/02/26 08:12:02;;;;;;;1999.90;999.90;;;;;;;5.26;91.94;163800.44;5059306;28;20433;-67
2022/02/26 08:14:29;;;;;;;1999.90;999.90;;;;;;;5.31;91.71;163811.44;5059668;28;20044;-67
2022/02/26 08:17:01;;;;;;;1999.90;999.90;;;;;;;5.21;91.58;163785.34;5062087;28;20457;-68
2022/02/26 08:19:27;;;;;;;1999.90;999.90;;;;;;;5.15;91.87;163768.88;5063148;28;20483;-68
2022/02/26 08:21:56;;;;;;;1999.90;999.90;;;;;;;5.06;92.22;163746.94;5059918;28;20075;-68
2022/02/26 08:24:22;;;;;;;1999.90;999.90;;;;;;;5.14;92.04;163767.53;5059554;28;20429;-68
2022/02/26 08:26:49;;;;;;;1999.90;999.90;;;;;;;5.17;92.17;163775.75;5061673;28;20087;-68
2022/02/26 08:29:15;;;;;;;1999.90;999.90;;;;;;;5.23;91.94;163792.22;5061081;28;20105;-68
2022/02/26 08:31:43;;;;;;;1999.90;999.90;;;;;;;4.92;92.65;163709.88;5050848;28;20076;-68
2022/02/26 08:34:09;;;;;;;1999.90;999.90;;;;;;;4.76;93.63;163665.97;5056746;28;20414;-68
2022/02/26 08:36:36;;;;;;;1999.90;999.90;;;;;;;4.56;94.56;163613.84;5062003;28;20392;-68
2022/02/26 08:39:03;;;;;;;1999.90;999.90;;;;;;;4.69;94.40;163646.75;5064835;28;20305;-69
2022/02/26 08:41:30;;;;;;;1999.90;999.90;;;;;;;4.22;96.08;163523.31;5061127;28;20083;-68
2022/02/26 08:43:56;;;;;;;1999.90;999.90;;;;;;;4.57;95.51;163616.59;5058614;28;20070;-69
2022/02/26 08:46:23;;;;;;;1999.90;999.90;;;;;;;4.72;95.01;163655.03;5060982;28;20363;-69
2022/02/26 08:48:51;;;;;;;1999.90;999.90;;;;;;;4.51;95.57;163598.75;5066439;28;20087;-69
2022/02/26 08:51:17;;;;;;;1999.90;999.90;;;;;;;4.58;95.94;163617.97;5061277;28;20068;-69
2022/02/26 08:53:43;;;;;;;1999.90;999.90;;;;;;;4.62;95.93;163627.59;5055309;28;20088;-69
2022/02/26 08:56:12;;;;;;;1999.90;999.90;;;;;;;4.59;96.41;163622.06;5059033;28;20059;-69
2022/02/26 08:58:38;;;;;;;1999.90;999.90;;;;;;;4.60;96.66;163623.47;5062204;28;20049;-68
2022/02/26 09:01:06;;;;;;;1999.90;999.90;;;;;;;4.62;97.25;163627.59;5061715;28;20048;-69
2022/02/26 09:03:33;;;;;;;1999.90;999.90;;;;;;;5.02;96.23;163734.59;5059926;28;20139;-69
2022/02/26 09:05:59;;;;;;;1999.90;999.90;;;;;;;4.47;97.16;163589.19;5054552;28;20428;-70
2022/02/26 09:08:26;;;;;;;1999.90;999.90;;;;;;;4.61;97.84;163626.19;5062784;28;20561;-72
2022/02/26 09:10:53;;;;;;;1999.90;999.90;;;;;;;5.00;96.98;163730.50;5056944;28;20504;-71
2022/02/26 09:13:19;;;;;;;1999.90;999.90;;;;;;;4.96;96.53;163718.09;5060797;28;20064;-72
2022/02/26 09:15:47;;;;;;;1999.90;999.90;;;;;;;4.67;98.87;163641.28;5063018;28;20098;-73
2022/02/26 09:18:13;;;;;;;1999.90;999.90;;;;;;;4.88;98.50;163697.53;5065597;28;20625;-73
2022/02/26 09:20:40;;;;;;;1999.90;999.90;;;;;;;5.06;98.31;163745.53;5057739;28;20130;-73
2022/02/26 09:23:06;;;;;;;1999.90;999.90;;;;;;;5.09;98.90;163753.78;5057051;28;20072;-73
2022/02/26 09:25:33;;;;;;;1999.90;999.90;;;;;;;5.40;97.95;163837.47;5061274;28;20076;-73
2022/02/26 09:28:00;;;;;;;1999.90;999.90;;;;;;;5.22;97.28;163788.09;5065847;28;20052;-73
2022/02/26 09:30:27;;;;;;;1999.90;999.90;;;;;;;5.32;98.08;163814.19;5062739;28;20049;-72
2022/02/26 09:32:53;;;;;;;1999.90;999.90;;;;;;;5.32;99.29;163815.56;5057632;28;20393;-70
2022/02/26 09:35:20;;;;;;;1999.90;999.90;;;;;;;5.52;98.54;163867.69;5055778;28;20072;-69
2022/02/26 09:37:48;;;;;;;1999.90;999.90;;;;;;;5.59;97.91;163886.91;5063183;28;20072;-67
2022/02/26 09:40:18;;;;;;;1999.90;999.90;;;;;;;5.57;96.97;163882.81;5055982;28;20067;-66
2022/02/26 09:42:45;;;;;;;1999.90;999.90;;;;;;;5.64;95.29;163902.03;5059625;28;20337;-66
2022/02/26 09:45:11;;;;;;;1999.90;999.90;;;;;;;5.18;96.65;163778.50;5062582;28;20080;-66
2022/02/26 09:47:38;;;;;;;1999.90;999.90;;;;;;;5.16;99.26;163773.00;5062406;28;20384;-67
2022/02/26 09:50:06;;;;;;;1999.90;999.90;;;;;;;5.59;97.34;163888.28;5059764;28;20451;-67
2022/02/26 09:52:39;;;;;;;1999.90;999.90;;;;;;;6.12;95.64;164028.41;5060559;28;20076;-67
2022/02/26 09:55:06;;;;;;;1999.90;999.90;;;;;;;5.87;96.60;163962.41;5061160;28;20553;-67
2022/02/26 09:57:33;;;;;;;1999.90;999.90;;;;;;;5.68;95.54;163910.25;5064760;28;20135;-67
2022/02/26 09:59:59;;;;;;;1999.90;999.90;;;;;;;5.92;95.17;163974.78;5061537;28;20098;-67
2022/02/26 10:02:30;;;;;;;1999.90;999.90;;;;;;;5.52;96.91;163869.06;5058942;28;20751;-66
2022/02/26 10:04:58;;;;;;;1999.90;999.90;;;;;;;5.47;98.67;163856.69;5059227;28;20056;-66
2022/02/26 10:07:26;;;;;;;1999.90;999.90;;;;;;;6.07;96.49;164014.63;5061275;28;20973;-67
2022/02/26 10:09:54;;;;;;;1999.90;999.90;;;;;;;5.92;96.09;163974.78;5063379;28;20131;-67
2022/02/26 10:12:27;;;;;;;1999.90;999.90;;;;;;;6.29;95.55;164073.69;5058527;28;20106;-67
2022/02/26 10:14:57;;;;;;;1999.90;999.90;;;;;;;6.19;91.34;164047.59;5058987;28;20052;-67
2022/02/26 10:17:46;;;;;;;1999.90;999.90;;;;;;;5.88;94.09;163965.19;5059088;28;20437;-67
2022/02/26 10:20:17;;;;;;;1999.90;999.90;;;;;;;6.07;92.88;164014.63;5061158;28;20102;-67
2022/02/26 10:22:51;;;;;;;1999.90;999.90;;;;;;;5.24;95.44;163793.56;5064137;28;20143;-67
2022/02/26 10:25:26;;;;;;;1999.90;999.90;;;;;;;5.03;96.41;163737.31;5059126;28;20083;-67
2022/02/26 10:27:59;;;;;;;1999.90;999.90;;;;;;;5.23;96.15;163790.84;5061176;28;20067;-67
2022/02/26 10:30:38;;;;;;;1999.90;999.90;;;;;;;5.80;95.39;163943.19;5060607;28;20072;-67
2022/02/26 10:33:14;;;;;;;1999.90;999.90;;;;;;;6.46;94.03;164120.41;5061610;28;20072;-67
2022/02/26 10:35:55;;;;;;;1999.90;999.90;;;;;;;7.38;90.47;164364.91;5063376;28;20417;-67
2022/02/26 10:38:24;;;;;;;1999.90;999.90;;;;;;;7.75;88.95;164465.25;5061009;28;20457;-67
2022/02/26 10:41:03;;;;;;;1999.90;999.90;;;;;;;6.22;89.16;164054.47;5057901;28;20075;-67
2022/02/26 10:43:37;;;;;;;1999.90;999.90;;;;;;;6.54;88.95;164141.00;5059880;28;20490;-67
2022/02/26 10:46:22;;;;;;;1999.90;999.90;;;;;;;6.65;87.66;164171.19;5062804;28;20048;-67
2022/02/26 10:48:52;;;;;;;1999.90;999.90;;;;;;;6.63;88.23;164165.72;5062516;28;20398;-67
2022/02/26 10:51:27;;;;;;;1999.90;999.90;;;;;;;6.91;85.73;164238.50;5061003;28;20060;-67
2022/02/26 10:53:53;;;;;;;1999.90;999.90;;;;;;;6.84;85.69;164222.03;5061002;28;20441;-67
2022/02/26 10:56:29;;;;;;;1999.90;999.90;;;;;;;6.28;89.46;164072.34;5060979;28;20075;-67